createdAt,value
2018-05-03T00:00:26.546Z,1.9
2018-05-03T00:01:28.900Z,1.8
2018-05-03T00:02:31.542Z,1.7
2018-05-03T00:03:33.895Z,1.6
2018-05-03T00:04:36.262Z,1.8
2018-05-03T00:05:38.889Z,1.8
2018-05-03T00:06:41.532Z,1.8
2018-05-03T00:07:43.888Z,2
2018-05-03T00:08:46.246Z,1.7
2018-05-03T00:09:48.599Z,1.7
2018-05-03T00:10:50.955Z,1.6
2018-05-03T00:11:53.592Z,2.1
2018-05-03T00:12:55.950Z,2
2018-05-03T00:13:58.305Z,2
2018-05-03T00:15:01.223Z,1.9
2018-05-03T00:16:03.580Z,2
2018-05-03T00:17:05.938Z,1.7
2018-05-03T00:18:08.575Z,1.6
2018-05-03T00:19:10.932Z,1.7
2018-05-03T00:20:13.291Z,1.6
2018-05-03T00:21:15.647Z,2.1
2018-05-03T00:22:18.003Z,1.8
2018-05-03T00:23:20.360Z,1.8
2018-05-03T00:24:22.715Z,1.6
2018-05-03T00:25:25.460Z,1.6
2018-05-03T00:26:27.814Z,1.6
2018-05-03T00:27:30.170Z,1.5
2018-05-03T00:28:32.527Z,1.7
2018-05-03T00:29:35.171Z,2
2018-05-03T00:30:37.524Z,2
2018-05-03T00:31:39.881Z,1.8
2018-05-03T00:32:42.620Z,2.1
2018-05-03T00:33:44.976Z,1.4
2018-05-03T00:34:47.334Z,1.5
2018-05-03T00:35:49.972Z,1.9
2018-05-03T00:36:52.710Z,2.1
2018-05-03T00:37:55.068Z,2.1
2018-05-03T00:38:57.422Z,1.9
2018-05-03T00:39:59.780Z,1.9
2018-05-03T00:41:02.153Z,2.1
2018-05-03T00:42:04.510Z,1.6
2018-05-03T00:43:06.866Z,1.9
2018-05-03T00:44:09.219Z,2
2018-05-03T00:45:11.574Z,1.9
2018-05-03T00:46:13.933Z,1.8
2018-05-03T00:47:16.290Z,1.7
2018-05-03T00:48:18.644Z,1.8
2018-05-03T00:49:21.028Z,1.9
2018-05-03T00:50:23.666Z,2.1
2018-05-03T00:51:26.023Z,1.9
2018-05-03T00:52:28.657Z,1.8
2018-05-03T00:53:31.016Z,2.1
2018-05-03T00:54:33.371Z,1.8
2018-05-03T00:55:36.007Z,1.8
2018-05-03T00:56:38.361Z,1.5
2018-05-03T00:57:40.716Z,1.5
2018-05-03T00:58:43.075Z,2
2018-05-03T00:59:45.713Z,1.8
2018-05-03T01:00:48.071Z,2
2018-05-03T01:01:50.424Z,1.6
2018-05-03T01:02:52.783Z,1.7
2018-05-03T01:03:55.138Z,1.5
2018-05-03T01:04:57.808Z,2.1
2018-05-03T01:06:00.185Z,2.2
2018-05-03T01:07:02.564Z,2.2
2018-05-03T01:08:05.241Z,1.8
2018-05-03T01:09:07.619Z,1.9
2018-05-03T01:10:10.280Z,1.6
2018-05-03T01:11:12.666Z,1.6
2018-05-03T01:12:15.435Z,1.4
2018-05-03T01:13:18.201Z,1.5
2018-05-03T01:14:20.580Z,2
2018-05-03T01:15:22.962Z,1.5
2018-05-03T01:16:25.341Z,2.1
2018-05-03T01:17:27.730Z,1.9
2018-05-03T01:18:30.108Z,1.8
2018-05-03T01:19:32.505Z,1.7
2018-05-03T01:20:35.174Z,1.5
2018-05-03T01:21:37.840Z,1.5
2018-05-03T01:22:40.223Z,1.5
2018-05-03T01:23:42.602Z,1.7
2018-05-03T01:24:44.981Z,2.2
2018-05-03T01:25:48.032Z,1.8
2018-05-03T01:26:50.693Z,2.1
2018-05-03T01:27:53.682Z,1.9
2018-05-03T01:28:56.057Z,2.1
2018-05-03T01:29:58.449Z,1.9
2018-05-03T01:31:00.823Z,1.7
2018-05-03T01:32:03.595Z,1.4
2018-05-03T01:33:05.969Z,1.7
2018-05-03T01:34:08.357Z,1.8
2018-05-03T01:35:10.737Z,1.8
2018-05-03T01:36:13.115Z,1.8
2018-05-03T01:37:15.500Z,1.8
2018-05-03T01:38:18.189Z,1.9
2018-05-03T01:39:20.843Z,1.7
2018-05-03T01:40:23.513Z,1.7
2018-05-03T01:41:25.895Z,2.1
2018-05-03T01:42:28.281Z,1.5
2018-05-03T01:43:30.665Z,2.3
2018-05-03T01:44:33.052Z,2
2018-05-03T01:45:35.711Z,1.7
2018-05-03T01:46:38.095Z,1.6
2018-05-03T01:47:40.476Z,1.8
2018-05-03T01:48:42.863Z,1.6
2018-05-03T01:49:45.238Z,1.6
2018-05-03T01:50:47.612Z,2.1
2018-05-03T01:51:49.989Z,2
2018-05-03T01:52:52.385Z,2
2018-05-03T01:53:54.762Z,1.8
2018-05-03T01:54:57.143Z,1.7
2018-05-03T01:55:59.523Z,1.6
2018-05-03T01:57:01.915Z,2.2
2018-05-03T01:58:04.287Z,2.5
2018-05-03T01:59:06.669Z,1.8
2018-05-03T02:00:09.341Z,1.9
2018-05-03T02:01:11.716Z,1.9
2018-05-03T02:02:14.095Z,1.6
2018-05-03T02:03:16.747Z,1.6
2018-05-03T02:04:19.507Z,1.6
2018-05-03T02:05:21.894Z,2
2018-05-03T02:06:24.281Z,2.1
2018-05-03T02:07:27.040Z,2.2
2018-05-03T02:08:29.428Z,1.9
2018-05-03T02:09:32.392Z,1.9
2018-05-03T02:10:34.774Z,2.2
2018-05-03T02:11:37.159Z,1.7
2018-05-03T02:12:39.540Z,1.8
2018-05-03T02:13:42.202Z,1.6
2018-05-03T02:14:44.595Z,2.3
2018-05-03T02:15:47.280Z,2.2
2018-05-03T02:16:50.036Z,2.1
2018-05-03T02:17:52.417Z,2.2
2018-05-03T02:18:54.809Z,1.9
2018-05-03T02:19:57.177Z,2
2018-05-03T02:20:59.567Z,2
2018-05-03T02:22:01.943Z,1.7
2018-05-03T02:23:04.322Z,2.1
2018-05-03T02:24:06.722Z,2.1
2018-05-03T02:25:09.100Z,2
2018-05-03T02:26:11.478Z,1.8
2018-05-03T02:27:13.887Z,1.7
2018-05-03T02:28:16.267Z,1.6
2018-05-03T02:29:18.923Z,1.5
2018-05-03T02:30:21.594Z,1.7
2018-05-03T02:31:24.265Z,1.9
2018-05-03T02:32:26.641Z,2.1
2018-05-03T02:33:29.335Z,1.9
2018-05-03T02:34:32.145Z,1.9
2018-05-03T02:35:35.111Z,2.1
2018-05-03T02:36:37.497Z,2
2018-05-03T02:37:39.876Z,2.2
2018-05-03T02:38:42.259Z,1.7
2018-05-03T02:39:44.648Z,1.7
2018-05-03T02:40:47.024Z,1.7
2018-05-03T02:41:49.402Z,2.2
2018-05-03T02:42:52.079Z,1.9
2018-05-03T02:43:54.462Z,2.3
2018-05-03T02:44:56.842Z,2
2018-05-03T02:45:59.520Z,1.8
2018-05-03T02:47:02.209Z,1.9
2018-05-03T02:48:05.279Z,1.9
2018-05-03T02:49:07.969Z,1.9
2018-05-03T02:50:10.342Z,1.8
2018-05-03T02:51:12.731Z,1.5
2018-05-03T02:52:16.079Z,1.6
2018-05-03T02:53:19.033Z,2.3
2018-05-03T02:54:21.689Z,1.6
2018-05-03T02:55:24.081Z,1.7
2018-05-03T02:56:26.459Z,2
2018-05-03T02:57:30.347Z,2
2018-05-03T02:58:32.739Z,2.5
2018-05-03T02:59:35.120Z,1.6
2018-05-03T03:00:37.498Z,2
2018-05-03T03:01:40.545Z,1.9
2018-05-03T03:02:42.920Z,1.9
2018-05-03T03:03:45.307Z,2
2018-05-03T03:04:47.702Z,1.7
2018-05-03T03:05:50.969Z,1.9
2018-05-03T03:06:53.354Z,1.8
2018-05-03T03:07:56.029Z,1.8
2018-05-03T03:08:58.791Z,1.6
2018-05-03T03:10:01.463Z,1.7
2018-05-03T03:11:04.127Z,1.6
2018-05-03T03:12:06.501Z,1.6
2018-05-03T03:13:08.884Z,2.1
2018-05-03T03:14:11.262Z,2.1
2018-05-03T03:15:13.944Z,2.1
2018-05-03T03:16:16.325Z,1.8
2018-05-03T03:17:18.709Z,1.8
2018-05-03T03:18:21.089Z,1.7
2018-05-03T03:19:23.470Z,1.5
2018-05-03T03:20:25.856Z,1.6
2018-05-03T03:21:28.236Z,1.9
2018-05-03T03:22:30.898Z,1.9
2018-05-03T03:23:33.288Z,1.9
2018-05-03T03:24:35.699Z,1.9
2018-05-03T03:25:38.089Z,1.7
2018-05-03T03:26:40.459Z,1.6
2018-05-03T03:27:43.123Z,2.2
2018-05-03T03:28:45.511Z,2
2018-05-03T03:29:47.898Z,1.9
2018-05-03T03:30:50.275Z,1.8
2018-05-03T03:31:52.961Z,1.7
2018-05-03T03:32:55.608Z,1.9
2018-05-03T03:33:57.993Z,1.6
2018-05-03T03:35:00.657Z,1.5
2018-05-03T03:36:03.107Z,1.5
2018-05-03T03:37:05.783Z,1.5
2018-05-03T03:38:08.168Z,2
2018-05-03T03:39:10.540Z,2
2018-05-03T03:40:13.204Z,2.1
2018-05-03T03:41:16.443Z,1.9
2018-05-03T03:42:18.826Z,1.9
2018-05-03T03:43:21.205Z,2
2018-05-03T03:44:24.159Z,1.7
2018-05-03T03:45:26.527Z,1.6
2018-05-03T03:46:29.363Z,1.7
2018-05-03T03:47:31.745Z,1.6
2018-05-03T03:48:34.134Z,1.6
2018-05-03T03:49:36.810Z,2.2
2018-05-03T03:50:39.190Z,1.7
2018-05-03T03:51:41.952Z,2.4
2018-05-03T03:52:44.345Z,1.9
2018-05-03T03:53:46.717Z,1.9
2018-05-03T03:54:49.098Z,1.6
2018-05-03T03:55:51.483Z,1.6
2018-05-03T03:56:53.871Z,1.5
2018-05-03T03:57:56.253Z,1.8
2018-05-03T03:58:59.093Z,2.1
2018-05-03T04:00:01.400Z,2.1
2018-05-03T04:01:04.063Z,1.9
2018-05-03T04:02:06.447Z,1.8
2018-05-03T04:03:08.832Z,2
2018-05-03T04:04:11.197Z,1.4
2018-05-03T04:05:13.579Z,1.6
2018-05-03T04:06:16.259Z,2
2018-05-03T04:07:19.016Z,1.9
2018-05-03T04:08:21.678Z,2
2018-05-03T04:09:24.356Z,2.1
2018-05-03T04:10:27.023Z,2.1
2018-05-03T04:11:29.423Z,2.3
2018-05-03T04:12:31.797Z,1.7
2018-05-03T04:13:34.170Z,1.9
2018-05-03T04:14:36.562Z,1.6
2018-05-03T04:15:38.944Z,1.5
2018-05-03T04:16:41.332Z,2
2018-05-03T04:17:43.720Z,2
2018-05-03T04:18:46.776Z,1.7
2018-05-03T04:19:49.455Z,1.9
2018-05-03T04:20:52.408Z,2
2018-05-03T04:21:54.785Z,2
2018-05-03T04:22:57.163Z,1.8
2018-05-03T04:23:59.549Z,1.6
2018-05-03T04:25:01.936Z,2
2018-05-03T04:26:04.990Z,1.7
2018-05-03T04:27:07.652Z,1.7
2018-05-03T04:28:10.420Z,1.8
2018-05-03T04:29:12.796Z,2.1
2018-05-03T04:30:15.177Z,2
2018-05-03T04:31:17.562Z,2.1
2018-05-03T04:32:19.938Z,1.8
2018-05-03T04:33:22.618Z,2
2018-05-03T04:34:25.027Z,1.6
2018-05-03T04:35:27.381Z,1.6
2018-05-03T04:36:30.049Z,2.2
2018-05-03T04:37:32.438Z,1.8
2018-05-03T04:38:35.385Z,1.9
2018-05-03T04:39:38.154Z,2.2
2018-05-03T04:40:40.535Z,2.1
2018-05-03T04:41:42.920Z,1.7
2018-05-03T04:42:45.580Z,1.8
2018-05-03T04:43:47.962Z,1.7
2018-05-03T04:44:50.632Z,1.8
2018-05-03T04:45:53.296Z,1.6
2018-05-03T04:46:55.758Z,1.6
2018-05-03T04:47:58.058Z,2.2
2018-05-03T04:49:00.439Z,1.7
2018-05-03T04:50:03.480Z,1.9
2018-05-03T04:51:06.269Z,1.8
2018-05-03T04:52:08.653Z,2
2018-05-03T04:53:11.341Z,1.9
2018-05-03T04:54:13.789Z,1.8
2018-05-03T04:55:16.481Z,1.7
2018-05-03T04:56:18.868Z,1.5
2018-05-03T04:57:21.247Z,1.7
2018-05-03T04:58:23.906Z,1.7
2018-05-03T04:59:26.289Z,2.2
2018-05-03T05:00:28.675Z,2.3
2018-05-03T05:01:31.064Z,2.2
2018-05-03T05:02:33.452Z,1.8
2018-05-03T05:03:35.825Z,1.8
2018-05-03T05:04:38.540Z,1.8
2018-05-03T05:05:41.275Z,2.2
2018-05-03T05:06:43.707Z,2.1
2018-05-03T05:07:46.045Z,2.3
2018-05-03T05:08:48.420Z,2.3
2018-05-03T05:09:50.805Z,1.9
2018-05-03T05:10:53.202Z,1.7
2018-05-03T05:11:55.579Z,1.9
2018-05-03T05:12:57.969Z,2.2
2018-05-03T05:14:00.355Z,2
2018-05-03T05:15:02.736Z,2.3
2018-05-03T05:16:05.402Z,2.3
2018-05-03T05:17:07.786Z,1.9
2018-05-03T05:18:10.542Z,1.9
2018-05-03T05:19:12.928Z,2
2018-05-03T05:20:15.698Z,1.9
2018-05-03T05:21:18.090Z,1.8
2018-05-03T05:22:20.471Z,1.8
2018-05-03T05:23:22.859Z,2.2
2018-05-03T05:24:25.529Z,1.8
2018-05-03T05:25:27.909Z,2
2018-05-03T05:26:30.295Z,2.1
2018-05-03T05:27:32.670Z,1.8
2018-05-03T05:28:35.052Z,1.6
2018-05-03T05:29:37.449Z,2.6
2018-05-03T05:30:40.151Z,2.1
2018-05-03T05:31:43.230Z,2.4
2018-05-03T05:32:45.614Z,2.6
2018-05-03T05:33:47.991Z,2
2018-05-03T05:34:50.772Z,2.2
2018-05-03T05:35:53.147Z,1.7
2018-05-03T05:36:55.806Z,1.9
2018-05-03T05:37:58.476Z,1.6
2018-05-03T05:39:00.870Z,1.8
2018-05-03T05:40:03.250Z,1.7
2018-05-03T05:41:05.646Z,2.3
2018-05-03T05:42:08.022Z,1.9
2018-05-03T05:43:10.401Z,2.1
2018-05-03T05:44:13.277Z,1.8
2018-05-03T05:45:15.897Z,1.6
2018-05-03T05:46:18.284Z,1.7
2018-05-03T05:47:20.671Z,1.8
2018-05-03T05:48:24.014Z,2.3
2018-05-03T05:49:27.289Z,2.2
2018-05-03T05:50:29.678Z,2.4
2018-05-03T05:51:32.052Z,2.3
2018-05-03T05:52:34.436Z,2
2018-05-03T05:53:36.820Z,2.1
2018-05-03T05:54:39.189Z,1.9
2018-05-03T05:55:41.855Z,2.4
2018-05-03T05:56:44.278Z,1.7
2018-05-03T05:57:46.896Z,2.1
2018-05-03T05:58:49.563Z,1.9
2018-05-03T05:59:51.952Z,1.9
2018-05-03T06:00:54.335Z,2.2
2018-05-03T06:01:56.720Z,1.9
2018-05-03T06:02:59.103Z,1.8
2018-05-03T06:04:01.484Z,2
2018-05-03T06:05:04.148Z,1.8
2018-05-03T06:06:06.528Z,1.8
2018-05-03T06:07:09.187Z,1.9
2018-05-03T06:08:11.874Z,2.2
2018-05-03T06:09:14.529Z,2.3
2018-05-03T06:10:17.275Z,2.5
2018-05-03T06:11:19.585Z,2.2
2018-05-03T06:12:22.040Z,2.2
2018-05-03T06:13:24.736Z,2.1
2018-05-03T06:14:27.797Z,1.9
2018-05-03T06:15:30.173Z,1.7
2018-05-03T06:16:32.556Z,2.1
2018-05-03T06:17:35.230Z,1.9
2018-05-03T06:18:37.622Z,2.6
2018-05-03T06:19:40.959Z,2.1
2018-05-03T06:20:43.341Z,2.5
2018-05-03T06:21:46.106Z,2.7
2018-05-03T06:22:48.489Z,2.3
2018-05-03T06:23:51.258Z,2.2
2018-05-03T06:24:53.652Z,2.2
2018-05-03T06:25:56.356Z,1.9
2018-05-03T06:26:59.401Z,2.1
2018-05-03T06:28:01.785Z,2
2018-05-03T06:29:04.175Z,2.1
2018-05-03T06:30:06.570Z,1.9
2018-05-03T06:31:08.956Z,2.1
2018-05-03T06:32:11.334Z,2.2
2018-05-03T06:33:14.001Z,2.3
2018-05-03T06:34:16.387Z,1.9
2018-05-03T06:35:19.068Z,1.9
2018-05-03T06:36:21.453Z,2.4
2018-05-03T06:37:23.839Z,2.1
2018-05-03T06:38:26.502Z,2.3
2018-05-03T06:39:28.902Z,2.7
2018-05-03T06:40:31.580Z,2.2
2018-05-03T06:41:33.966Z,2.4
2018-05-03T06:42:36.642Z,2.1
2018-05-03T06:43:39.414Z,1.8
2018-05-03T06:44:41.797Z,2.6
2018-05-03T06:45:44.178Z,2.3
2018-05-03T06:46:46.563Z,2.5
2018-05-03T06:47:48.951Z,2.4
2018-05-03T06:48:51.614Z,2.4
2018-05-03T06:49:53.997Z,2.8
2018-05-03T06:50:56.654Z,2.5
2018-05-03T06:51:59.042Z,2.3
2018-05-03T06:53:01.441Z,2
2018-05-03T06:54:04.106Z,2.4
2018-05-03T06:55:06.493Z,2.6
2018-05-03T06:56:08.872Z,2.6
2018-05-03T06:57:11.263Z,2.6
2018-05-03T06:58:14.208Z,2.2
2018-05-03T06:59:16.885Z,2.5
2018-05-03T07:00:19.257Z,2.2
2018-05-03T07:01:21.651Z,2
2018-05-03T07:02:24.430Z,2.5
2018-05-03T07:03:26.821Z,2.3
2018-05-03T07:04:29.740Z,2.6
2018-05-03T07:05:31.978Z,2.4
2018-05-03T07:06:34.366Z,2.8
2018-05-03T07:07:37.039Z,2.2
2018-05-03T07:08:39.423Z,2.4
2018-05-03T07:09:42.095Z,2.3
2018-05-03T07:10:44.487Z,2.2
2018-05-03T07:11:46.880Z,2.6
2018-05-03T07:12:49.269Z,2.8
2018-05-03T07:13:51.952Z,2.8
2018-05-03T07:14:54.387Z,2.5
2018-05-03T07:15:56.722Z,2.6
2018-05-03T07:16:59.113Z,2.5
2018-05-03T07:18:01.501Z,2.6
2018-05-03T07:19:04.564Z,2.7
2018-05-03T07:20:06.944Z,2.5
2018-05-03T07:21:09.342Z,2.6
2018-05-03T07:22:11.718Z,2.4
2018-05-03T07:23:14.109Z,2.7
2018-05-03T07:24:16.904Z,2.5
2018-05-03T07:25:19.288Z,2.5
2018-05-03T07:26:21.678Z,2.7
2018-05-03T07:27:24.066Z,2.7
2018-05-03T07:28:26.734Z,2.5
2018-05-03T07:29:29.174Z,2.4
2018-05-03T07:30:31.519Z,2.6
2018-05-03T07:31:33.897Z,2.3
2018-05-03T07:32:36.289Z,3.1
2018-05-03T07:33:38.674Z,2.7
2018-05-03T07:34:41.149Z,2.9
2018-05-03T07:35:43.851Z,2.9
2018-05-03T07:36:46.236Z,2.8
2018-05-03T07:37:48.623Z,2.8
2018-05-03T07:38:51.013Z,2.7
2018-05-03T07:39:53.402Z,2.9
2018-05-03T07:40:56.163Z,3
2018-05-03T07:41:58.884Z,3.2
2018-05-03T07:43:01.556Z,2.6
2018-05-03T07:44:03.940Z,2.6
2018-05-03T07:45:06.327Z,3.3
2018-05-03T07:46:08.715Z,2.9
2018-05-03T07:47:11.099Z,2.4
2018-05-03T07:48:13.486Z,2.6
2018-05-03T07:49:15.877Z,2.8
2018-05-03T07:50:18.261Z,2.7
2018-05-03T07:51:20.955Z,2.7
2018-05-03T07:52:23.436Z,2.4
2018-05-03T07:53:26.019Z,2.7
2018-05-03T07:54:28.403Z,3
2018-05-03T07:55:30.806Z,3
2018-05-03T07:56:33.471Z,2.7
2018-05-03T07:57:35.855Z,2.4
2018-05-03T07:58:38.638Z,2.6
2018-05-03T07:59:41.023Z,2.9
2018-05-03T08:00:43.408Z,2.7
2018-05-03T08:01:45.797Z,2.9
2018-05-03T08:02:48.376Z,2.9
2018-05-03T08:03:51.050Z,2.9
2018-05-03T08:04:53.719Z,2.5
2018-05-03T08:05:56.109Z,3.1
2018-05-03T08:06:58.509Z,2.5
2018-05-03T08:08:00.897Z,2.8
2018-05-03T08:09:03.278Z,3.1
2018-05-03T08:10:05.677Z,2.9
2018-05-03T08:11:08.061Z,2.9
2018-05-03T08:12:10.449Z,3
2018-05-03T08:13:12.838Z,2.6
2018-05-03T08:14:15.213Z,2.7
2018-05-03T08:15:17.599Z,2.8
2018-05-03T08:16:19.999Z,3.3
2018-05-03T08:17:22.949Z,2.6
2018-05-03T08:18:25.336Z,2.9
2018-05-03T08:19:27.723Z,2.6
2018-05-03T08:20:30.113Z,2.5
2018-05-03T08:21:32.499Z,2.8
2018-05-03T08:22:34.891Z,3.1
2018-05-03T08:23:37.287Z,2.9
2018-05-03T08:24:39.677Z,2.8
2018-05-03T08:25:42.066Z,2.7
2018-05-03T08:26:44.457Z,2.5
2018-05-03T08:27:46.868Z,3.2
2018-05-03T08:28:49.250Z,2.8
2018-05-03T08:29:51.643Z,2.7
2018-05-03T08:30:54.021Z,2.7
2018-05-03T08:31:56.863Z,2.8
2018-05-03T08:32:59.255Z,3
2018-05-03T08:34:01.644Z,2.9
2018-05-03T08:35:04.033Z,2.7
2018-05-03T08:36:06.429Z,2.8
2018-05-03T08:37:08.812Z,2.8
2018-05-03T08:38:11.209Z,2.7
2018-05-03T08:39:13.981Z,2.8
2018-05-03T08:40:16.362Z,3.1
2018-05-03T08:41:18.753Z,3.1
2018-05-03T08:42:21.151Z,2.9
2018-05-03T08:43:23.542Z,2.7
2018-05-03T08:44:25.947Z,3
2018-05-03T08:45:28.720Z,3
2018-05-03T08:46:31.116Z,2.7
2018-05-03T08:47:33.799Z,2.9
2018-05-03T08:48:36.190Z,2.9
2018-05-03T08:49:39.181Z,3.7
2018-05-03T08:50:41.882Z,2.6
2018-05-03T08:51:44.268Z,3.6
2018-05-03T08:52:47.062Z,2.8
2018-05-03T08:53:49.444Z,2.8
2018-05-03T08:54:52.126Z,3.1
2018-05-03T08:55:54.511Z,3.3
2018-05-03T08:56:57.592Z,2.7
2018-05-03T08:58:00.052Z,3.4
2018-05-03T08:59:02.437Z,2.9
2018-05-03T09:00:04.838Z,2.9
2018-05-03T09:01:07.227Z,3.8
2018-05-03T09:02:09.888Z,2.9
2018-05-03T09:03:12.662Z,3.1
2018-05-03T09:04:15.062Z,3.1
2018-05-03T09:05:17.727Z,3.5
2018-05-03T09:06:20.123Z,3.1
2018-05-03T09:07:22.657Z,2.7
2018-05-03T09:08:25.042Z,2.8
2018-05-03T09:09:27.665Z,3
2018-05-03T09:10:30.630Z,2.7
2018-05-03T09:11:33.014Z,3
2018-05-03T09:12:35.740Z,3
2018-05-03T09:13:38.219Z,2.9
2018-05-03T09:14:40.818Z,3
2018-05-03T09:15:43.664Z,3.2
2018-05-03T09:16:46.093Z,2.9
2018-05-03T09:17:48.636Z,3
2018-05-03T09:18:51.412Z,3
2018-05-03T09:19:54.192Z,3.5
2018-05-03T09:20:56.615Z,3.3
2018-05-03T09:21:59.005Z,4
2018-05-03T09:23:01.386Z,3.5
2018-05-03T09:24:04.335Z,3.1
2018-05-03T09:25:07.994Z,3.2
2018-05-03T09:26:10.456Z,3.2
2018-05-03T09:27:13.067Z,3
2018-05-03T09:28:15.842Z,3.2
2018-05-03T09:29:18.693Z,3.4
2018-05-03T09:30:21.373Z,3.5
2018-05-03T09:31:24.229Z,3.2
2018-05-03T09:32:27.655Z,3.1
2018-05-03T09:33:30.050Z,3.6
2018-05-03T09:34:32.578Z,3.3
2018-05-03T09:35:34.990Z,3.1
2018-05-03T09:36:37.516Z,3.8
2018-05-03T09:37:39.906Z,3.7
2018-05-03T09:38:42.303Z,3.5
2018-05-03T09:39:44.990Z,3.3
2018-05-03T09:40:47.381Z,3.4
2018-05-03T09:41:49.785Z,3.6
2018-05-03T09:42:52.180Z,3.6
2018-05-03T09:43:54.580Z,3.7
2018-05-03T09:44:57.279Z,4.3
2018-05-03T09:45:59.955Z,3.4
2018-05-03T09:47:02.341Z,3.5
2018-05-03T09:48:04.737Z,3.5
2018-05-03T09:49:07.124Z,3.5
2018-05-03T09:50:09.520Z,3.5
2018-05-03T09:51:12.207Z,3.8
2018-05-03T09:52:14.613Z,3.7
2018-05-03T09:53:17.001Z,3.5
2018-05-03T09:54:19.397Z,3.8
2018-05-03T09:55:21.796Z,3.7
2018-05-03T09:56:24.197Z,3.6
2018-05-03T09:57:27.262Z,3.8
2018-05-03T09:58:30.045Z,3.9
2018-05-03T09:59:32.438Z,3.9
2018-05-03T10:00:35.213Z,3.8
2018-05-03T10:01:37.612Z,3.8
2018-05-03T10:02:40.583Z,3.6
2018-05-03T10:03:42.982Z,3.9
2018-05-03T10:04:45.425Z,4.3
2018-05-03T10:05:47.768Z,3.9
2018-05-03T10:06:50.163Z,4.1
2018-05-03T10:07:52.838Z,3.8
2018-05-03T10:08:55.230Z,4.1
2018-05-03T10:09:58.286Z,3.8
2018-05-03T10:11:00.692Z,4.1
2018-05-03T10:12:03.463Z,3.8
2018-05-03T10:13:05.866Z,4.2
2018-05-03T10:14:08.530Z,4
2018-05-03T10:15:10.919Z,3.7
2018-05-03T10:16:13.615Z,4.1
2018-05-03T10:17:16.008Z,3.7
2018-05-03T10:18:18.964Z,3.8
2018-05-03T10:19:21.359Z,3.7
2018-05-03T10:20:23.758Z,4.1
2018-05-03T10:21:26.150Z,3.7
2018-05-03T10:22:28.547Z,4.3
2018-05-03T10:23:30.943Z,4
2018-05-03T10:24:33.343Z,3.9
2018-05-03T10:25:36.021Z,3.8
2018-05-03T10:26:38.421Z,4
2018-05-03T10:27:40.805Z,4.4
2018-05-03T10:28:43.207Z,4.1
2018-05-03T10:29:45.601Z,4.1
2018-05-03T10:30:47.997Z,4
2018-05-03T10:31:50.393Z,4.2
2018-05-03T10:32:52.793Z,4.1
2018-05-03T10:33:55.180Z,4.1
2018-05-03T10:34:57.585Z,4.2
2018-05-03T10:36:00.535Z,4.1
2018-05-03T10:37:03.531Z,4.1
2018-05-03T10:38:06.252Z,4
2018-05-03T10:39:08.937Z,4
2018-05-03T10:40:11.329Z,4.1
2018-05-03T10:41:13.722Z,4.4
2018-05-03T10:42:16.959Z,4.3
2018-05-03T10:43:19.298Z,4.2
2018-05-03T10:44:21.689Z,4.2
2018-05-03T10:45:24.092Z,4.8
2018-05-03T10:46:26.483Z,4.5
2018-05-03T10:47:28.886Z,4
2018-05-03T10:48:31.293Z,4.8
2018-05-03T10:49:33.689Z,4.3
2018-05-03T10:50:36.089Z,4.1
2018-05-03T10:51:38.490Z,4.2
2018-05-03T10:52:40.885Z,4.5
2018-05-03T10:53:43.284Z,4.6
2018-05-03T10:54:45.684Z,4.5
2018-05-03T10:55:48.379Z,4.6
2018-05-03T10:56:50.771Z,4.4
2018-05-03T10:57:53.175Z,5
2018-05-03T10:58:56.135Z,5.4
2018-05-03T10:59:58.814Z,5.1
2018-05-03T11:01:01.507Z,4.9
2018-05-03T11:02:04.566Z,4.7
2018-05-03T11:03:06.964Z,4.8
2018-05-03T11:04:09.363Z,5
2018-05-03T11:05:12.087Z,4.5
2018-05-03T11:06:14.477Z,4.6
2018-05-03T11:07:17.169Z,4.8
2018-05-03T11:08:19.560Z,5.6
2018-05-03T11:09:21.957Z,5
2018-05-03T11:10:24.364Z,4.7
2018-05-03T11:11:26.752Z,5.1
2018-05-03T11:12:29.152Z,5.1
2018-05-03T11:13:31.548Z,5.1
2018-05-03T11:14:33.946Z,5.2
2018-05-03T11:15:36.653Z,5.1
2018-05-03T11:16:39.059Z,5.4
2018-05-03T11:17:41.454Z,5.2
2018-05-03T11:18:43.855Z,5
2018-05-03T11:19:46.253Z,5.3
2018-05-03T11:20:48.940Z,4.8
2018-05-03T11:21:51.338Z,5.3
2018-05-03T11:22:53.736Z,5.5
2018-05-03T11:23:56.429Z,5.2
2018-05-03T11:24:58.828Z,5.4
2018-05-03T11:26:01.380Z,4.9
2018-05-03T11:27:04.012Z,5
2018-05-03T11:28:06.414Z,5.1
2018-05-03T11:29:09.096Z,4.6
2018-05-03T11:30:11.490Z,4.9
2018-05-03T11:31:13.893Z,4.7
2018-05-03T11:32:16.585Z,5.1
2018-05-03T11:33:18.976Z,4.9
2018-05-03T11:34:21.662Z,4.9
2018-05-03T11:35:24.059Z,4.7
2018-05-03T11:36:27.033Z,4.9
2018-05-03T11:37:29.433Z,4.5
2018-05-03T11:38:31.837Z,4.8
2018-05-03T11:39:34.517Z,4.6
2018-05-03T11:40:36.920Z,4.6
2018-05-03T11:41:39.314Z,4.5
2018-05-03T11:42:41.711Z,4.5
2018-05-03T11:43:44.711Z,4.3
2018-05-03T11:44:47.384Z,4.5
2018-05-03T11:45:50.344Z,4.7
2018-05-03T11:46:53.021Z,4.5
2018-05-03T11:47:55.427Z,4.6
2018-05-03T11:48:58.094Z,4.4
2018-05-03T11:50:00.489Z,4.8
2018-05-03T11:51:02.897Z,4.7
2018-05-03T11:52:05.572Z,4.4
2018-05-03T11:53:07.970Z,4.5
2018-05-03T11:54:10.368Z,4.9
2018-05-03T11:55:12.761Z,4.7
2018-05-03T11:56:15.160Z,4.6
2018-05-03T11:57:17.944Z,4.7
2018-05-03T11:58:20.331Z,4.7
2018-05-03T11:59:23.656Z,4.4
2018-05-03T12:00:25.955Z,4.6
2018-05-03T12:01:28.648Z,4.8
2018-05-03T12:02:31.087Z,4.8
2018-05-03T12:03:33.743Z,4.9
2018-05-03T12:04:36.145Z,5.1
2018-05-03T12:05:38.550Z,4.7
2018-05-03T12:06:40.949Z,4.6
2018-05-03T12:07:43.632Z,5
2018-05-03T12:08:46.029Z,4.6
2018-05-03T12:09:48.428Z,4.8
2018-05-03T12:10:50.832Z,4.5
2018-05-03T12:11:53.708Z,5.1
2018-05-03T12:12:56.674Z,5.4
2018-05-03T12:13:59.064Z,5.3
2018-05-03T12:15:01.461Z,5.3
2018-05-03T12:16:04.249Z,4.9
2018-05-03T12:17:06.636Z,5.1
2018-05-03T12:18:09.319Z,4.9
2018-05-03T12:19:11.718Z,4.9
2018-05-03T12:20:14.124Z,4.9
2018-05-03T12:21:16.520Z,5.1
2018-05-03T12:22:18.930Z,5.2
2018-05-03T12:23:21.330Z,4.9
2018-05-03T12:24:23.738Z,5.2
2018-05-03T12:25:26.134Z,5
2018-05-03T12:26:28.538Z,5.6
2018-05-03T12:27:31.239Z,5.2
2018-05-03T12:28:33.925Z,5.5
2018-05-03T12:29:36.324Z,5.2
2018-05-03T12:30:38.724Z,5.3
2018-05-03T12:31:41.131Z,5.3
2018-05-03T12:32:43.525Z,5.4
2018-05-03T12:33:46.319Z,5.7
2018-05-03T12:34:48.748Z,5.2
2018-05-03T12:35:51.532Z,5.8
2018-05-03T12:36:54.216Z,5.6
2018-05-03T12:37:56.614Z,5.3
2018-05-03T12:38:59.008Z,5.8
2018-05-03T12:40:01.416Z,5.6
2018-05-03T12:41:04.192Z,5.8
2018-05-03T12:42:06.895Z,5.5
2018-05-03T12:43:09.303Z,5.4
2018-05-03T12:44:12.002Z,5.5
2018-05-03T12:45:14.397Z,5.8
2018-05-03T12:46:16.803Z,6.4
2018-05-03T12:47:19.206Z,5.9
2018-05-03T12:48:21.608Z,5.3
2018-05-03T12:49:24.009Z,5.9
2018-05-03T12:50:26.702Z,5.5
2018-05-03T12:51:29.377Z,5.9
2018-05-03T12:52:31.776Z,5.9
2018-05-03T12:53:34.176Z,5.9
2018-05-03T12:54:36.855Z,6.1
2018-05-03T12:55:39.953Z,5.9
2018-05-03T12:56:42.377Z,5.6
2018-05-03T12:57:45.078Z,5.7
2018-05-03T12:58:47.483Z,5.9
2018-05-03T12:59:49.893Z,5.1
2018-05-03T13:00:52.346Z,5.9
2018-05-03T13:01:54.751Z,6.2
2018-05-03T13:02:57.093Z,5.5
2018-05-03T13:03:59.501Z,5.9
2018-05-03T13:05:01.912Z,5.4
2018-05-03T13:06:04.311Z,5.7
2018-05-03T13:07:06.700Z,5.6
2018-05-03T13:08:09.487Z,5.6
2018-05-03T13:09:11.893Z,6
2018-05-03T13:10:14.675Z,5.5
2018-05-03T13:11:17.356Z,5.6
2018-05-03T13:12:20.032Z,5.4
2018-05-03T13:13:22.429Z,5.7
2018-05-03T13:14:24.841Z,5.5
2018-05-03T13:15:27.239Z,5.8
2018-05-03T13:16:29.978Z,5.5
2018-05-03T13:17:32.688Z,5.5
2018-05-03T13:18:35.381Z,5.6
2018-05-03T13:19:38.265Z,5.9
2018-05-03T13:20:40.950Z,5.7
2018-05-03T13:21:43.343Z,5.5
2018-05-03T13:22:45.988Z,5.9
2018-05-03T13:23:48.967Z,5.9
2018-05-03T13:24:51.702Z,6
2018-05-03T13:25:54.621Z,6.4
2018-05-03T13:26:57.197Z,6.4
2018-05-03T13:27:59.666Z,5.6
2018-05-03T13:29:02.436Z,6.1
2018-05-03T13:30:05.114Z,6.1
2018-05-03T13:31:07.588Z,6.1
2018-05-03T13:32:10.929Z,6
2018-05-03T13:33:13.392Z,6.1
2018-05-03T13:34:16.020Z,5.6
2018-05-03T13:35:18.481Z,5.9
2018-05-03T13:36:21.188Z,6.5
2018-05-03T13:37:23.878Z,5.9
2018-05-03T13:38:26.817Z,5.8
2018-05-03T13:39:29.610Z,5.8
2018-05-03T13:40:32.376Z,6.1
2018-05-03T13:41:35.613Z,6
2018-05-03T13:42:38.068Z,6.2
2018-05-03T13:43:40.753Z,6
2018-05-03T13:44:43.178Z,5.6
2018-05-03T13:45:46.093Z,6.3
2018-05-03T13:46:48.545Z,6.1
2018-05-03T13:47:51.313Z,6.3
2018-05-03T13:48:53.752Z,6.1
2018-05-03T13:49:56.988Z,5.8
2018-05-03T13:50:59.746Z,6.4
2018-05-03T13:52:02.665Z,6.6
2018-05-03T13:53:05.080Z,6.2
2018-05-03T13:54:07.660Z,5.7
2018-05-03T13:55:10.109Z,6
2018-05-03T13:56:12.724Z,6
2018-05-03T13:57:15.372Z,5.7
2018-05-03T13:58:18.500Z,6.1
2018-05-03T13:59:21.009Z,6.2
2018-05-03T14:00:23.585Z,5.6
2018-05-03T14:01:26.036Z,6.6
2018-05-03T14:02:28.764Z,6.4
2018-05-03T14:03:31.234Z,6.2
2018-05-03T14:04:33.673Z,6.1
2018-05-03T14:05:36.143Z,6
2018-05-03T14:06:38.821Z,6.3
2018-05-03T14:07:41.824Z,6.2
2018-05-03T14:08:44.669Z,6.1
2018-05-03T14:09:47.127Z,6.2
2018-05-03T14:10:49.639Z,6.2
2018-05-03T14:11:52.049Z,5.9
2018-05-03T14:12:55.118Z,5.8
2018-05-03T14:13:57.558Z,6.1
2018-05-03T14:15:00.036Z,6
2018-05-03T14:16:02.497Z,6.4
2018-05-03T14:17:05.247Z,6.2
2018-05-03T14:18:07.703Z,6.1
2018-05-03T14:19:11.253Z,6.4
2018-05-03T14:20:13.948Z,6.2
2018-05-03T14:21:16.396Z,6.2
2018-05-03T14:22:18.861Z,6.1
2018-05-03T14:23:21.317Z,6.1
2018-05-03T14:24:23.777Z,6.1
2018-05-03T14:25:26.246Z,6.1
2018-05-03T14:26:29.003Z,6.2